Warning: fopen(/var/www/metroair/shared/private/wxdata/metar/AVWX/metar_KGSP): failed to open stream: Permission denied in /var/www/metroair/shared/private/library/orig_library/lib_airport.php on line 346

Warning: fwrite() expects parameter 1 to be resource, boolean given in /var/www/metroair/shared/private/library/orig_library/lib_airport.php on line 347

Warning: fclose() expects parameter 1 to be resource, boolean given in /var/www/metroair/shared/private/library/orig_library/lib_airport.php on line 348

Warning: fopen(/var/www/metroair/shared/private/wxdata/TAF/AVWX/taf_KGSP): failed to open stream: Permission denied in /var/www/metroair/shared/private/library/orig_library/lib_airport.php on line 533

Warning: fwrite() expects parameter 1 to be resource, boolean given in /var/www/metroair/shared/private/library/orig_library/lib_airport.php on line 534

Warning: fclose() expects parameter 1 to be resource, boolean given in /var/www/metroair/shared/private/library/orig_library/lib_airport.php on line 535

MET5207 - Boston to Greenville - Spartanburg

Embraer ERJ-170LR
N924AG
2 hrs 00 mins
691 nm
Scheduled - Daily

Bid/PiRep Status

Bid was submitted on Dec 31 2016.

PiRep # 74548: Approved by Sean Doyle on January 1st, 2017 15:52 UTC

Departure

Departing from
Boston (BOS)
Departure gate
Scheduled Departure
GMT 1330
Local 0830
METAR KBOS 260454Z 30014G21KT 10SM FEW015 SCT026 OVC040 09/07 A2947 RMK AO2 RAE44 SLP979 P0003 T00940067 402060094
TAF KBOS 260051Z 2601/2706 17007KT 3SM BR VCSH BKN007 OVC014 FM260300 24010G20KT 3SM -SHRA OVC015 FM260500 28012G26KT P6SM VCSH BKN045 FM260600 29013G27KT P6SM BKN040 FM260700 29014G28KT P6SM SCT060 FM270300 26008KT P6SM SKC
  • No charts available

Arrival

Arriving at
Greenville - Spartanburg (GSP)
Arrival gate
Unassigned
Scheduled Arrival
GMT 1530
Local 1030
METAR KGSP 260453Z AUTO 34004KT 10SM CLR 07/M07 A2997 RMK AO2 SLP142 T00671067 402330067
TAF KGSP 260004Z 2600/2624 26009KT P6SM SKC TEMPO 2600/2604 28014G22KT FM260400 30007KT P6SM SKC FM261100 33003KT P6SM SKC FM261700 23003KT P6SM SKC

Route Map

Planning Resources

HAFNR GVE LYH
TERPZ3 LDN GVE J75 GSO J14 SPA
TERPZ5 FLASK J48 SPA92 J53 SPA ICASY OXABY
PATSS SWALO J75 SBJ V419 BIGGY J75 GVE V476 LYH WHTTL
BOS PUT HFD RBV OOD OTT GVE LYH SPA KGSP
Route:
OFP Layout:
Units:
Detailed Navlog:
ETOPS Planning:
Plan Stepclimbs:
Runway Analysis:
Include NOTAMS:
FIR NOTAMS:
Flight Maps:

Return Flights

MET5208
Embraer ERJ-170LR
1600 GMT
MET5210
Embraer ERJ-170LR
0100 GMT

Popularity

Hub Current Bids PiReps this month Total PiReps
KMCI 0 0 2
KLAX 0 0 0
KBOS 0 0 3